Time;durP1;ratioP1;P1;durP2;ratioP2;P2;SDS_P1;SDS_P2;PMS_P1;PMS_P2;Temp;Humidity;BMP_temperature;BMP_pressure;BME280_temperature;BME280_humidity;BME280_pressure;Samples;Min_cycle;Max_cycle;Signal;HPM_P1;HPM_P2
2023/07/15 04:30:57;;;;;;;10.15;2.50;;;18.30;84.20;;;;;;5626451;23;20511;-80
2023/07/15 04:33:23;;;;;;;11.63;2.53;;;18.30;84.50;;;;;;4911865;29;20074;-80
2023/07/15 04:35:49;;;;;;;10.85;2.13;;;18.30;84.50;;;;;;4883016;29;20033;-80
2023/07/15 04:38:14;;;;;;;6.28;1.92;;;18.20;84.60;;;;;;4899766;29;20408;-80
2023/07/15 04:40:40;;;;;;;9.45;2.03;;;18.30;84.60;;;;;;4883390;29;20473;-80
2023/07/15 04:43:06;;;;;;;9.70;2.35;;;18.30;84.50;;;;;;4898603;29;20071;-80
2023/07/15 04:45:32;;;;;;;7.70;2.13;;;18.30;84.40;;;;;;4884187;29;20066;-80
2023/07/15 04:47:58;;;;;;;10.65;2.47;;;18.20;84.50;;;;;;4887244;29;20028;-80
2023/07/15 04:50:24;;;;;;;9.75;2.15;;;18.20;84.50;;;;;;4900160;29;20033;-80
2023/07/15 04:52:50;;;;;;;11.73;2.78;;;18.20;84.60;;;;;;4899813;29;20039;-80
2023/07/15 04:55:15;;;;;;;8.88;2.38;;;18.20;84.70;;;;;;4899630;29;20021;-80
2023/07/15 04:57:41;;;;;;;11.15;2.40;;;18.20;84.70;;;;;;4899866;29;20032;-80
2023/07/15 05:00:10;;;;;;;11.70;3.53;;;18.30;84.50;;;;;;4899779;29;20036;-80
2023/07/15 05:02:37;;;;;;;7.78;2.00;;;18.30;84.60;;;;;;4909287;29;20078;-80
2023/07/15 05:05:04;;;;;;;10.80;2.35;;;18.40;84.50;;;;;;4901726;29;20479;-80
2023/07/15 05:07:30;;;;;;;6.93;2.38;;;18.30;84.50;;;;;;4918702;29;20028;-80
2023/07/15 05:09:56;;;;;;;8.50;2.25;;;18.30;84.40;;;;;;4918745;29;20068;-80
2023/07/15 05:12:22;;;;;;;11.52;2.42;;;18.40;84.30;;;;;;4904116;29;20152;-80
2023/07/15 05:14:48;;;;;;;8.93;2.28;;;18.50;84.40;;;;;;4902399;29;20025;-80
2023/07/15 05:17:14;;;;;;;13.00;3.05;;;18.50;84.20;;;;;;4903372;29;20037;-80
2023/07/15 05:19:39;;;;;;;10.52;2.45;;;18.60;84.20;;;;;;4910618;29;20864;-80
2023/07/15 05:22:06;;;;;;;12.50;2.72;;;18.60;84.10;;;;;;4898951;29;20028;-80
2023/07/15 05:24:32;;;;;;;8.55;1.98;;;18.70;84.00;;;;;;4902991;29;20092;-80
2023/07/15 05:26:58;;;;;;;9.32;2.47;;;18.80;83.60;;;;;;4905537;29;20456;-80
2023/07/15 05:29:23;;;;;;;7.35;2.42;;;18.80;83.70;;;;;;4917285;29;20436;-80
2023/07/15 05:31:50;;;;;;;11.13;2.67;;;18.80;83.40;;;;;;4913002;29;20052;-80
2023/07/15 05:34:16;;;;;;;10.10;2.15;;;18.90;83.20;;;;;;4921949;29;20485;-81
2023/07/15 05:36:42;;;;;;;10.57;2.38;;;18.80;83.00;;;;;;4901527;29;20407;-80
2023/07/15 05:39:07;;;;;;;9.07;2.22;;;18.90;83.10;;;;;;4902425;29;20033;-80
2023/07/15 05:41:33;;;;;;;9.43;2.72;;;18.90;82.90;;;;;;4901769;29;20056;-80
2023/07/15 05:43:59;;;;;;;9.07;2.38;;;18.90;83.10;;;;;;4902831;29;20411;-80
2023/07/15 05:46:24;;;;;;;12.13;2.95;;;18.90;83.00;;;;;;4902653;29;20025;-80
2023/07/15 05:48:50;;;;;;;10.05;2.15;;;18.90;83.00;;;;;;4902997;29;20025;-80
2023/07/15 05:51:16;;;;;;;11.80;2.58;;;18.90;83.00;;;;;;4902962;29;20099;-80
2023/07/15 05:53:43;;;;;;;8.60;2.40;;;18.90;82.90;;;;;;4902577;29;20484;-80
2023/07/15 05:56:08;;;;;;;9.13;2.05;;;18.90;82.80;;;;;;4901519;29;20036;-80
2023/07/15 05:58:34;;;;;;;10.05;1.75;;;18.80;83.20;;;;;;4885695;29;20432;-80
2023/07/15 06:01:00;;;;;;;8.57;2.28;;;18.80;83.30;;;;;;4885934;29;20127;-80
2023/07/15 06:03:25;;;;;;;13.48;2.88;;;18.80;83.20;;;;;;4918614;29;20034;-80
2023/07/15 06:05:52;;;;;;;9.55;2.28;;;18.80;83.50;;;;;;4906068;29;20024;-80
2023/07/15 06:08:18;;;;;;;6.53;2.50;;;18.80;83.30;;;;;;4921156;29;20475;-79
2023/07/15 06:10:43;;;;;;;7.20;1.75;;;19.00;83.30;;;;;;4913375;29;20075;-80
2023/07/15 06:13:10;;;;;;;11.60;2.63;;;19.10;83.00;;;;;;4921216;29;20028;-80
2023/07/15 06:15:38;;;;;;;5.75;1.77;;;19.20;83.10;;;;;;4904366;29;20048;-80
2023/07/15 06:18:04;;;;;;;8.18;2.40;;;19.10;82.90;;;;;;4913721;29;20025;-86
2023/07/15 06:20:30;;;;;;;12.65;2.47;;;19.20;82.80;;;;;;4919815;29;20559;-86
2023/07/15 06:22:55;;;;;;;10.45;2.00;;;19.30;82.40;;;;;;4903349;29;20119;-84
2023/07/15 06:25:21;;;;;;;8.02;1.80;;;19.30;82.20;;;;;;4914881;29;20024;-85
2023/07/15 06:27:47;;;;;;;9.48;1.98;;;19.30;82.20;;;;;;4914629;29;20457;-86
2023/07/15 06:30:13;;;;;;;8.60;1.80;;;19.50;81.80;;;;;;4904690;29;20443;-86
2023/07/15 06:32:38;;;;;;;11.38;2.35;;;19.50;80.80;;;;;;4920576;29;20028;-85
2023/07/15 06:35:04;;;;;;;10.98;1.90;;;19.70;81.20;;;;;;4919683;29;20586;-86
2023/07/15 06:37:30;;;;;;;9.90;2.70;;;19.70;80.70;;;;;;4919401;29;20024;-82
2023/07/15 06:39:56;;;;;;;11.02;2.38;;;19.60;80.60;;;;;;4903951;29;20032;-84
2023/07/15 06:42:21;;;;;;;8.52;2.35;;;19.60;80.60;;;;;;4904255;29;20499;-85
2023/07/15 06:44:47;;;;;;;8.80;2.30;;;19.60;81.00;;;;;;4909461;29;20116;-81
2023/07/15 06:47:12;;;;;;;9.88;2.10;;;19.70;80.80;;;;;;4902097;29;20103;-85
2023/07/15 06:49:38;;;;;;;11.20;2.15;;;19.80;80.70;;;;;;4885595;29;20119;-83
2023/07/15 06:52:04;;;;;;;7.35;1.33;;;19.80;80.10;;;;;;4902367;29;20121;-74
2023/07/15 06:54:31;;;;;;;8.20;2.33;;;19.90;79.50;;;;;;4901547;29;20029;-74
2023/07/15 06:56:57;;;;;;;3.85;1.02;;;20.00;79.30;;;;;;4900474;29;20021;-75
2023/07/15 06:59:23;;;;;;;10.60;2.53;;;20.20;78.80;;;;;;4905934;29;20036;-75
2023/07/15 07:01:48;;;;;;;9.00;2.25;;;20.20;78.70;;;;;;4905760;29;20042;-76
2023/07/15 07:04:14;;;;;;;9.15;1.75;;;20.50;78.20;;;;;;4921285;29;20095;-75
2023/07/15 07:06:39;;;;;;;11.35;1.92;;;20.50;78.00;;;;;;4898403;29;20095;-74
2023/07/15 07:09:06;;;;;;;6.72;1.42;;;20.50;78.00;;;;;;4920910;29;20028;-76
2023/07/15 07:11:32;;;;;;;8.80;1.77;;;20.50;77.40;;;;;;4917060;29;20043;-74
2023/07/15 07:13:57;;;;;;;7.05;1.85;;;20.50;77.70;;;;;;4904230;29;20032;-75
2023/07/15 07:16:23;;;;;;;4.05;1.50;;;20.50;77.80;;;;;;4899861;29;20473;-74
2023/07/15 07:18:49;;;;;;;9.20;1.60;;;20.30;77.70;;;;;;4901641;29;20115;-76
2023/07/15 07:21:14;;;;;;;8.13;1.75;;;20.20;77.60;;;;;;4885650;29;20088;-75
2023/07/15 07:23:40;;;;;;;10.73;2.30;;;20.10;78.40;;;;;;4916033;29;20044;-76
2023/07/15 07:26:06;;;;;;;7.47;1.98;;;20.20;79.40;;;;;;4913515;29;20024;-76
2023/07/15 07:28:43;;;;;;;7.10;1.67;;;20.00;79.90;;;;;;4913300;29;20043;-75
2023/07/15 07:31:10;;;;;;;4.78;1.73;;;19.90;80.60;;;;;;4901833;29;20048;-76
2023/07/15 07:33:37;;;;;;;4.35;1.63;;;19.80;81.20;;;;;;4902388;29;20040;-75
2023/07/15 07:36:03;;;;;;;8.30;2.00;;;19.60;82.50;;;;;;4920770;29;20510;-74
2023/07/15 07:38:29;;;;;;;8.38;2.15;;;19.40;83.00;;;;;;4913496;29;20040;-74
2023/07/15 07:41:02;;;;;;;8.25;1.90;;;19.30;83.50;;;;;;4900374;29;20352;-74
2023/07/15 07:43:28;;;;;;;7.22;1.15;;;19.10;83.90;;;;;;4901600;29;20059;-74
2023/07/15 07:45:53;;;;;;;5.03;1.50;;;18.90;84.30;;;;;;4900345;29;20021;-77
2023/07/15 07:48:19;;;;;;;4.72;1.23;;;18.80;84.40;;;;;;4900794;29;20064;-75
2023/07/15 07:50:44;;;;;;;2.50;1.15;;;18.90;84.30;;;;;;4901736;29;20661;-75
2023/07/15 07:53:10;;;;;;;4.43;1.55;;;19.10;83.80;;;;;;4885065;29;20020;-75
2023/07/15 07:55:36;;;;;;;5.43;1.20;;;21.00;81.30;;;;;;4901481;29;20035;-79
2023/07/15 07:58:01;;;;;;;5.18;1.50;;;23.30;72.60;;;;;;4901544;29;20033;-76
2023/07/15 08:00:27;;;;;;;5.40;1.98;;;26.00;63.80;;;;;;4911637;29;20035;-74
2023/07/15 08:02:53;;;;;;;5.85;1.67;;;26.50;59.70;;;;;;4920109;29;20035;-74
2023/07/15 08:05:18;;;;;;;6.50;1.33;;;28.00;55.80;;;;;;4907469;29;20091;-80
2023/07/15 08:07:44;;;;;;;6.72;1.50;;;28.10;55.70;;;;;;4901406;29;20056;-75
2023/07/15 08:10:10;;;;;;;7.00;1.67;;;28.90;51.90;;;;;;4916879;29;20102;-74
2023/07/15 08:12:35;;;;;;;4.50;1.25;;;27.20;56.00;;;;;;4913835;29;20031;-75
2023/07/15 08:15:02;;;;;;;8.25;1.60;;;25.30;61.20;;;;;;4917215;29;20891;-74
2023/07/15 08:17:28;;;;;;;5.80;1.52;;;24.00;63.90;;;;;;4902421;29;20030;-74
2023/07/15 08:19:53;;;;;;;6.60;1.60;;;22.90;68.00;;;;;;4888569;29;20040;-74
2023/07/15 08:22:19;;;;;;;6.05;1.30;;;22.20;70.80;;;;;;4912831;29;20454;-74
2023/07/15 08:24:44;;;;;;;5.28;1.48;;;21.70;72.90;;;;;;4900738;29;20077;-74
2023/07/15 08:27:10;;;;;;;7.68;1.50;;;21.30;74.20;;;;;;4919477;29;20059;-74
2023/07/15 08:29:36;;;;;;;9.55;1.70;;;21.40;74.40;;;;;;4928076;29;20028;-77
2023/07/15 08:32:02;;;;;;;5.65;1.40;;;21.30;74.30;;;;;;4905418;29;20044;-74
2023/07/15 08:34:28;;;;;;;5.65;1.45;;;21.40;74.80;;;;;;4912814;29;20029;-74
2023/07/15 08:36:53;;;;;;;6.28;1.23;;;21.40;74.50;;;;;;4901327;29;20035;-75
2023/07/15 08:39:19;;;;;;;10.77;2.40;;;21.50;73.70;;;;;;4901201;29;20035;-74
2023/07/15 08:41:46;;;;;;;8.07;1.75;;;21.70;72.90;;;;;;4900982;29;20024;-74
2023/07/15 08:44:14;;;;;;;7.13;1.52;;;21.80;72.00;;;;;;4884443;29;20043;-74
2023/07/15 08:46:41;;;;;;;7.25;1.70;;;21.70;71.30;;;;;;4900939;29;20020;-74
2023/07/15 08:49:07;;;;;;;8.00;1.63;;;21.40;71.70;;;;;;4903553;29;20033;-75
2023/07/15 08:51:37;;;;;;;5.63;1.65;;;21.30;72.50;;;;;;4904894;29;20084;-74
2023/07/15 08:54:05;;;;;;;5.85;1.58;;;21.60;72.30;;;;;;4904782;29;20028;-74
2023/07/15 08:56:34;;;;;;;7.68;1.80;;;23.00;69.00;;;;;;4904605;29;20393;-75
2023/07/15 08:59:01;;;;;;;10.18;4.82;;;24.30;65.90;;;;;;4888082;29;20116;-75
2023/07/15 09:01:27;;;;;;;6.40;2.28;;;25.90;61.20;;;;;;4905037;29;20043;-75
2023/07/15 09:03:53;;;;;;;12.75;11.75;;;26.80;59.70;;;;;;4923610;29;20396;-75
2023/07/15 09:06:18;;;;;;;7.35;2.10;;;27.00;55.40;;;;;;4904385;29;20395;-75
2023/07/15 09:08:50;;;;;;;6.70;5.18;;;27.30;54.80;;;;;;4887410;29;20029;-75
2023/07/15 09:11:16;;;;;;;8.27;2.10;;;27.30;53.40;;;;;;4906414;29;20067;-75
2023/07/15 09:13:42;;;;;;;8.88;1.88;;;27.20;54.10;;;;;;4887990;29;20032;-75
2023/07/15 09:16:08;;;;;;;7.78;2.10;;;27.20;54.90;;;;;;4904166;29;20028;-76
2023/07/15 09:18:40;;;;;;;6.57;2.15;;;26.80;53.50;;;;;;4904568;29;21043;-76
2023/07/15 09:21:11;;;;;;;6.80;2.33;;;26.90;54.00;;;;;;4887659;29;20108;-75
2023/07/15 09:23:42;;;;;;;8.65;4.35;;;27.00;51.00;;;;;;4904008;29;20037;-76
2023/07/15 09:26:08;;;;;;;7.03;4.53;;;27.10;51.50;;;;;;4904179;29;20025;-75
2023/07/15 09:28:35;;;;;;;8.25;1.65;;;27.20;50.20;;;;;;4904304;29;20029;-75
2023/07/15 09:31:01;;;;;;;10.25;6.55;;;27.40;51.10;;;;;;4903966;29;20044;-76
2023/07/15 09:33:31;;;;;;;7.05;1.88;;;27.50;50.00;;;;;;4922475;29;20132;-75
2023/07/15 09:35:56;;;;;;;4.95;1.45;;;27.80;50.40;;;;;;4904475;29;20028;-75
2023/07/15 09:38:23;;;;;;;9.20;2.10;;;26.70;50.70;;;;;;4921527;29;20028;-75
2023/07/15 09:40:49;;;;;;;5.68;1.80;;;25.90;52.20;;;;;;4923313;29;20488;-76
2023/07/15 09:43:14;;;;;;;7.20;1.70;;;25.40;53.80;;;;;;4922789;29;20127;-76
2023/07/15 09:45:41;;;;;;;6.20;1.23;;;24.80;54.60;;;;;;4910742;29;20088;-75
2023/07/15 09:48:11;;;;;;;5.55;1.20;;;23.80;56.50;;;;;;4902748;29;20115;-75
2023/07/15 09:50:39;;;;;;;7.55;1.50;;;23.00;58.80;;;;;;4887189;29;20510;-75
2023/07/15 09:53:06;;;;;;;4.68;1.30;;;22.60;60.20;;;;;;4902312;29;20057;-75
2023/07/15 09:55:33;;;;;;;4.13;1.20;;;22.30;61.90;;;;;;4887027;29;20041;-75
2023/07/15 09:58:21;;;;;;;6.20;1.90;;;22.20;62.70;;;;;;4903807;29;20476;-74
2023/07/15 10:00:51;;;;;;;5.88;1.42;;;21.80;63.50;;;;;;4902055;29;20021;-74
2023/07/15 10:03:30;;;;;;;6.60;1.75;;;21.70;65.70;;;;;;4913802;29;20035;-75
2023/07/15 10:05:56;;;;;;;7.57;1.73;;;21.60;66.60;;;;;;4922523;29;20024;-77
2023/07/15 10:08:22;;;;;;;8.43;1.70;;;21.50;66.50;;;;;;4922544;29;20497;-75
2023/07/15 10:10:48;;;;;;;5.30;1.50;;;22.10;65.50;;;;;;4922206;29;20055;-74
2023/07/15 10:13:14;;;;;;;10.13;2.03;;;22.60;65.40;;;;;;4901171;29;20056;-75
2023/07/15 10:15:42;;;;;;;5.53;2.22;;;23.70;62.10;;;;;;4902933;29;20031;-75
2023/07/15 10:18:13;;;;;;;5.25;1.60;;;25.00;59.90;;;;;;4913681;29;20066;-75
2023/07/15 10:21:01;;;;;;;5.80;2.00;;;25.80;56.40;;;;;;4902160;29;20028;-75
2023/07/15 10:23:28;;;;;;;10.48;4.95;;;26.40;56.90;;;;;;4902777;29;20104;-75
2023/07/15 10:26:05;;;;;;;5.07;2.05;;;26.70;54.00;;;;;;4903274;29;20495;-75
2023/07/15 10:28:40;;;;;;;6.10;1.70;;;27.00;53.90;;;;;;4903311;29;20149;-75
2023/07/15 10:31:16;;;;;;;7.68;1.80;;;27.30;53.10;;;;;;4903107;29;20059;-80
2023/07/15 10:33:53;;;;;;;7.30;1.65;;;27.70;52.10;;;;;;4917702;29;20043;-74
2023/07/15 10:36:38;;;;;;;8.95;1.75;;;26.70;51.70;;;;;;4906450;29;20047;-76
2023/07/15 10:39:14;;;;;;;7.22;1.60;;;26.00;53.50;;;;;;4917787;29;20392;-74
2023/07/15 10:42:07;;;;;;;6.55;1.67;;;25.10;55.70;;;;;;4904786;29;20035;-75
2023/07/15 10:44:39;;;;;;;6.57;1.52;;;24.50;57.80;;;;;;4920202;29;20484;-72
2023/07/15 10:47:05;;;;;;;;;;;23.90;60.80;;;;;;4918657;29;20024;-73
2023/07/15 10:49:31;;;;;;;8.57;1.35;;;23.50;61.70;;;;;;4921798;29;20374;-73
2023/07/15 10:51:57;;;;;;;7.40;1.70;;;23.00;62.90;;;;;;4899386;29;20024;-76
2023/07/15 10:54:32;;;;;;;6.90;3.50;;;23.00;62.60;;;;;;4904976;29;20043;-72
2023/07/15 10:57:07;;;;;;;5.63;1.40;;;22.80;63.40;;;;;;4904477;29;20052;-72
2023/07/15 10:59:35;;;;;;;3.97;1.42;;;22.70;63.00;;;;;;4900970;29;20033;-73
2023/07/15 11:02:01;;;;;;;4.53;1.02;;;22.50;62.50;;;;;;4904820;29;20076;-72
2023/07/15 11:04:27;;;;;;;3.80;1.20;;;22.40;64.10;;;;;;4916351;29;20024;-73
2023/07/15 11:07:01;;;;;;;3.83;1.40;;;22.50;66.40;;;;;;4921386;29;20024;-73
2023/07/15 11:09:27;;;;;;;6.07;1.42;;;22.60;65.70;;;;;;4909846;29;20028;-73
2023/07/15 11:11:52;;;;;;;5.88;1.00;;;22.60;64.30;;;;;;4917146;29;20028;-73
2023/07/15 11:14:25;;;;;;;4.00;1.25;;;22.80;65.10;;;;;;4904567;29;20039;-72
2023/07/15 11:16:58;;;;;;;4.85;0.93;;;22.80;64.50;;;;;;4902288;29;20059;-72
2023/07/15 11:19:29;;;;;;;3.63;1.08;;;22.90;61.30;;;;;;4902355;29;20415;-73
2023/07/15 11:21:56;;;;;;;4.47;1.20;;;22.80;57.80;;;;;;4914078;29;20020;-72
2023/07/15 11:24:26;;;;;;;4.75;1.20;;;23.00;57.60;;;;;;4902466;29;20684;-72
2023/07/15 11:26:52;;;;;;;7.78;1.13;;;23.00;55.60;;;;;;4905611;29;20028;-72
2023/07/15 11:29:21;;;;;;;5.50;1.05;;;23.00;56.40;;;;;;4885341;29;20048;-72
2023/07/15 11:31:48;;;;;;;4.22;0.90;;;23.10;56.50;;;;;;4905227;29;20843;-72
2023/07/15 11:34:18;;;;;;;3.00;0.93;;;23.10;55.20;;;;;;4909883;29;20032;-74
2023/07/15 11:36:45;;;;;;;4.20;1.02;;;23.10;55.70;;;;;;4903427;29;20044;-72
2023/07/15 11:39:11;;;;;;;4.28;1.00;;;23.00;54.90;;;;;;4902226;29;20037;-72
2023/07/15 11:41:38;;;;;;;2.28;0.60;;;23.20;55.50;;;;;;4902115;29;20437;-73
2023/07/15 11:44:09;;;;;;;5.93;0.93;;;23.40;54.10;;;;;;4885082;29;20460;-72
2023/07/15 11:46:35;;;;;;;3.10;0.98;;;23.50;54.40;;;;;;4901725;29;20028;-73
2023/07/15 11:49:01;;;;;;;3.22;1.00;;;23.80;52.70;;;;;;4900171;29;20113;-74
2023/07/15 11:51:27;;;;;;;3.80;1.00;;;23.90;52.30;;;;;;4909706;29;20043;-76
2023/07/15 11:53:54;;;;;;;3.15;0.88;;;24.00;53.60;;;;;;4898097;29;20053;-75
2023/07/15 11:56:37;;;;;;;4.38;0.90;;;24.00;52.60;;;;;;4898440;29;20039;-77
2023/07/15 11:59:06;;;;;;;2.15;0.80;;;24.00;49.30;;;;;;4917522;29;20485;-76
2023/07/15 12:01:32;;;;;;;5.10;1.00;;;24.10;48.70;;;;;;4898661;29;20105;-77
2023/07/15 12:03:57;;;;;;;3.15;0.70;;;24.10;48.10;;;;;;4915922;29;20506;-76
2023/07/15 12:06:25;;;;;;;3.97;1.33;;;24.00;48.90;;;;;;4917849;29;20016;-77
2023/07/15 12:09:11;;;;;;;3.28;0.68;;;24.00;47.50;;;;;;4916659;29;20031;-76
2023/07/15 12:11:37;;;;;;;2.60;0.73;;;23.90;47.40;;;;;;4917118;29;20027;-76
2023/07/15 12:14:05;;;;;;;2.50;0.77;;;23.80;46.50;;;;;;4915775;29;20036;-76
2023/07/15 12:16:32;;;;;;;2.72;0.80;;;23.90;47.40;;;;;;4915834;29;20136;-76
2023/07/15 12:18:59;;;;;;;5.25;1.02;;;24.00;46.10;;;;;;4896049;29;20079;-77
2023/07/15 12:21:25;;;;;;;2.72;1.00;;;24.00;45.90;;;;;;4900373;29;20074;-75
2023/07/15 12:23:51;;;;;;;3.08;0.85;;;24.10;45.80;;;;;;4914104;29;20068;-78
2023/07/15 12:26:20;;;;;;;4.25;0.90;;;23.90;45.30;;;;;;4911970;29;20032;-76
2023/07/15 12:28:46;;;;;;;2.38;0.70;;;24.00;46.80;;;;;;4898912;29;20475;-75
2023/07/15 12:31:13;;;;;;;6.05;0.98;;;23.90;46.80;;;;;;4909406;29;20041;-75
2023/07/15 12:33:39;;;;;;;3.45;0.90;;;23.70;46.00;;;;;;4912258;29;20017;-75
2023/07/15 12:36:05;;;;;;;4.57;0.90;;;23.70;46.10;;;;;;4910374;29;20509;-75
2023/07/15 12:38:31;;;;;;;3.72;0.60;;;23.70;46.30;;;;;;4917976;29;20028;-74
2023/07/15 12:40:57;;;;;;;1.83;0.75;;;24.00;45.60;;;;;;4919025;29;20395;-76
2023/07/15 12:43:23;;;;;;;1.98;0.60;;;24.00;47.00;;;;;;4917511;29;20063;-76
2023/07/15 12:45:52;;;;;;;3.45;0.90;;;24.20;45.70;;;;;;4914070;29;20024;-75
2023/07/15 12:48:18;;;;;;;3.67;1.00;;;24.20;45.10;;;;;;4919092;29;20076;-77
2023/07/15 12:50:44;;;;;;;2.72;0.77;;;24.30;46.20;;;;;;4916688;29;20028;-74
2023/07/15 12:53:10;;;;;;;3.85;0.70;;;24.30;46.50;;;;;;4900886;29;20025;-74
2023/07/15 12:55:36;;;;;;;6.00;0.93;;;24.40;46.70;;;;;;4900364;29;20491;-74
2023/07/15 12:58:02;;;;;;;2.20;0.50;;;24.40;46.80;;;;;;4884502;29;20128;-74
2023/07/15 13:00:28;;;;;;;9.27;1.00;;;24.40;45.60;;;;;;4900651;29;20500;-74
2023/07/15 13:02:53;;;;;;;4.82;0.77;;;24.40;45.10;;;;;;4911068;29;20051;-75
2023/07/15 13:05:19;;;;;;;3.33;1.10;;;24.50;45.00;;;;;;4901386;29;20031;-74
2023/07/15 13:07:55;;;;;;;4.60;1.23;;;24.50;44.10;;;;;;4888475;29;20036;-77
2023/07/15 13:10:21;;;;;;;2.10;0.90;;;24.70;44.10;;;;;;4904300;29;20025;-74
2023/07/15 13:12:47;;;;;;;4.20;1.10;;;24.70;44.20;;;;;;4914616;29;20028;-74
2023/07/15 13:15:12;;;;;;;3.03;0.95;;;24.50;43.90;;;;;;4919984;29;20028;-74
2023/07/15 13:17:40;;;;;;;2.83;0.90;;;24.70;44.20;;;;;;4910163;29;20092;-74
2023/07/15 13:20:09;;;;;;;3.03;0.93;;;24.90;43.90;;;;;;4901975;29;20055;-74
2023/07/15 13:22:35;;;;;;;3.40;0.75;;;24.90;42.20;;;;;;4915704;29;20047;-75
2023/07/15 13:25:01;;;;;;;3.85;0.80;;;24.80;42.60;;;;;;4915904;29;20056;-74
2023/07/15 13:27:26;;;;;;;2.58;0.90;;;25.00;43.20;;;;;;4909251;29;20028;-74
2023/07/15 13:29:52;;;;;;;1.90;0.70;;;24.90;42.20;;;;;;4910438;29;20597;-75
2023/07/15 13:32:18;;;;;;;5.28;1.38;;;24.60;43.80;;;;;;4912239;29;20048;-74
2023/07/15 13:34:43;;;;;;;6.10;1.00;;;24.50;42.80;;;;;;4917854;29;20451;-74
2023/07/15 13:37:09;;;;;;;4.03;1.20;;;24.60;43.30;;;;;;4921264;29;20040;-74
2023/07/15 13:39:36;;;;;;;3.13;0.77;;;24.70;43.30;;;;;;4905352;29;20039;-74
2023/07/15 13:42:21;;;;;;;5.70;1.50;;;24.70;41.70;;;;;;4903009;29;20100;-74
2023/07/15 13:44:48;;;;;;;5.32;1.40;;;24.40;42.70;;;;;;4903607;29;20037;-74
2023/07/15 13:47:14;;;;;;;3.72;1.02;;;24.60;42.90;;;;;;4912505;29;20056;-74
2023/07/15 13:49:40;;;;;;;4.60;1.00;;;24.70;41.40;;;;;;4902926;29;20025;-75
2023/07/15 13:52:06;;;;;;;4.53;1.17;;;24.60;41.70;;;;;;4913787;29;20031;-75
2023/07/15 13:54:33;;;;;;;4.30;1.10;;;24.60;42.50;;;;;;4939872;29;20027;-75
2023/07/15 13:56:59;;;;;;;4.55;1.52;;;24.60;42.70;;;;;;4900795;29;20127;-74
2023/07/15 13:59:24;;;;;;;3.92;0.75;;;24.40;43.00;;;;;;4901269;29;20155;-74
2023/07/15 14:01:51;;;;;;;7.80;1.75;;;24.30;43.80;;;;;;4926648;29;20625;-75
2023/07/15 14:04:16;;;;;;;5.55;1.45;;;24.10;43.50;;;;;;4928404;29;20035;-76
2023/07/15 14:06:45;;;;;;;3.58;1.27;;;24.10;43.80;;;;;;4925391;29;20028;-75
2023/07/15 14:09:11;;;;;;;7.57;1.50;;;23.80;44.50;;;;;;4938148;29;20022;-75
2023/07/15 14:11:38;;;;;;;5.53;1.38;;;24.10;46.10;;;;;;4927961;29;20103;-75
2023/07/15 14:14:03;;;;;;;7.95;1.80;;;24.30;45.30;;;;;;4918545;29;20083;-75
2023/07/15 14:16:29;;;;;;;4.13;1.17;;;24.50;47.00;;;;;;4918455;29;20040;-75
2023/07/15 14:18:54;;;;;;;3.83;1.15;;;24.70;44.90;;;;;;4914933;29;20032;-75
2023/07/15 14:21:20;;;;;;;4.70;1.42;;;24.40;43.80;;;;;;4914242;29;20039;-75
2023/07/15 14:23:46;;;;;;;6.30;2.05;;;24.60;44.60;;;;;;4906536;29;20033;-75
2023/07/15 14:26:12;;;;;;;5.60;1.80;;;24.60;43.80;;;;;;4915739;29;20032;-75
2023/07/15 14:28:38;;;;;;;9.98;2.00;;;24.50;44.50;;;;;;4917063;29;20012;-76
2023/07/15 14:31:03;;;;;;;5.00;1.48;;;24.60;44.70;;;;;;4911829;29;20048;-75
2023/07/15 14:33:29;;;;;;;9.48;2.20;;;24.70;44.30;;;;;;4915140;29;20047;-75
2023/07/15 14:35:56;;;;;;;4.82;1.60;;;24.70;43.50;;;;;;4914141;29;20040;-75
2023/07/15 14:38:21;;;;;;;5.35;1.50;;;24.80;43.50;;;;;;4894078;29;20593;-75
2023/07/15 14:40:47;;;;;;;7.07;1.83;;;24.90;42.30;;;;;;4920172;29;20051;-75
2023/07/15 14:43:12;;;;;;;4.47;1.55;;;25.00;43.70;;;;;;4901912;29;20050;-76
2023/07/15 14:45:38;;;;;;;5.60;1.88;;;24.80;43.10;;;;;;4920287;29;20028;-75
2023/07/15 14:48:04;;;;;;;5.57;1.58;;;24.60;42.40;;;;;;4917881;29;20583;-75
2023/07/15 14:50:29;;;;;;;4.80;1.40;;;24.30;43.30;;;;;;4917563;29;20028;-75
2023/07/15 14:52:55;;;;;;;6.22;1.80;;;24.10;44.80;;;;;;4898529;29;20543;-75
2023/07/15 14:55:23;;;;;;;4.78;1.38;;;24.50;45.50;;;;;;4917424;29;20028;-75
2023/07/15 14:57:49;;;;;;;5.72;1.50;;;24.60;44.20;;;;;;4902774;29;20057;-75
2023/07/15 15:00:17;;;;;;;6.07;1.92;;;24.60;45.10;;;;;;4912371;29;20044;-75
2023/07/15 15:02:42;;;;;;;6.35;2.00;;;24.70;45.30;;;;;;4908434;29;20666;-76
2023/07/15 15:05:09;;;;;;;6.80;1.98;;;24.30;44.20;;;;;;4919473;29;20035;-75
2023/07/15 15:07:34;;;;;;;8.68;2.15;;;24.60;44.50;;;;;;4919997;29;20731;-76
2023/07/15 15:10:00;;;;;;;7.32;2.47;;;24.60;44.90;;;;;;4915807;29;20039;-76
2023/07/15 15:12:26;;;;;;;8.77;2.92;;;24.70;44.10;;;;;;4918044;29;20543;-77
2023/07/15 15:14:51;;;;;;;5.32;2.00;;;24.70;44.90;;;;;;4903820;29;20487;-76
2023/07/15 15:17:17;;;;;;;8.00;2.60;;;24.80;43.20;;;;;;4919007;29;20038;-77
2023/07/15 15:19:42;;;;;;;6.95;2.17;;;24.30;44.40;;;;;;4913833;29;20036;-76
2023/07/15 15:22:08;;;;;;;8.63;2.40;;;24.00;44.00;;;;;;4913556;29;20024;-76
2023/07/15 15:24:34;;;;;;;10.65;3.08;;;24.10;44.70;;;;;;4920261;29;20503;-77
2023/07/15 15:27:00;;;;;;;10.80;2.53;;;24.00;45.00;;;;;;4920685;29;20104;-76
2023/07/15 15:29:25;;;;;;;7.85;2.70;;;24.10;44.20;;;;;;4918297;29;20055;-75
2023/07/15 15:31:52;;;;;;;6.68;2.65;;;24.10;43.20;;;;;;4920520;29;20048;-75
2023/07/15 15:34:17;;;;;;;8.93;2.25;;;24.10;42.30;;;;;;4913599;29;20120;-81
2023/07/15 15:36:43;;;;;;;6.35;2.55;;;24.10;42.80;;;;;;4904381;29;20051;-75
2023/07/15 15:39:12;;;;;;;9.07;2.38;;;24.00;43.00;;;;;;4917052;29;20036;-75
2023/07/15 15:41:38;;;;;;;6.78;3.05;;;24.20;43.00;;;;;;4920257;29;20025;-73
2023/07/15 15:44:05;;;;;;;5.95;2.30;;;24.30;42.20;;;;;;4918134;29;20036;-74
2023/07/15 15:46:31;;;;;;;6.55;2.75;;;24.20;42.40;;;;;;4911352;29;20122;-75
2023/07/15 15:48:57;;;;;;;6.22;2.65;;;23.80;42.10;;;;;;4918646;29;20056;-74
2023/07/15 15:51:23;;;;;;;5.75;2.53;;;23.80;43.20;;;;;;4918856;29;20034;-76
2023/07/15 15:53:57;;;;;;;5.97;2.30;;;23.80;42.40;;;;;;4898033;29;20036;-79
2023/07/15 15:56:24;;;;;;;5.25;2.30;;;23.50;42.80;;;;;;4911254;29;20115;-79
2023/07/15 15:58:50;;;;;;;6.82;2.40;;;23.40;43.10;;;;;;4902201;29;20035;-83
2023/07/15 16:01:15;;;;;;;5.90;2.78;;;23.30;43.70;;;;;;4918433;29;20106;-83
2023/07/15 16:03:47;;;;;;;6.32;2.83;;;23.50;42.70;;;;;;4908525;29;20103;-87
2023/07/15 16:06:12;;;;;;;6.97;2.70;;;23.50;42.60;;;;;;4890792;29;20040;-82
2023/07/15 16:08:38;;;;;;;5.45;2.78;;;23.40;43.00;;;;;;4915069;29;20025;-82
2023/07/15 16:11:04;;;;;;;8.32;2.65;;;23.30;42.50;;;;;;4911156;29;20120;-82
2023/07/15 16:13:29;;;;;;;5.13;2.45;;;23.10;41.80;;;;;;4894378;29;20035;-82
2023/07/15 16:15:55;;;;;;;6.45;2.63;;;23.00;42.20;;;;;;4904998;29;20028;-80
2023/07/15 16:18:21;;;;;;;8.40;2.72;;;22.90;43.40;;;;;;4900459;29;20021;-83
2023/07/15 16:20:46;;;;;;;7.50;2.72;;;22.90;43.80;;;;;;4909168;29;20032;-81
2023/07/15 16:23:13;;;;;;;4.90;2.40;;;22.80;43.20;;;;;;4902636;29;20111;-81
2023/07/15 16:25:39;;;;;;;8.57;2.75;;;22.80;43.00;;;;;;4900473;29;20124;-81
2023/07/15 16:28:05;;;;;;;7.63;2.78;;;22.90;43.80;;;;;;4901895;29;20059;-83
2023/07/15 16:30:32;;;;;;;5.65;2.47;;;22.80;43.80;;;;;;4912898;29;20128;-82
2023/07/15 16:32:58;;;;;;;9.48;3.33;;;22.80;43.40;;;;;;4907876;29;20091;-81
2023/07/15 16:35:24;;;;;;;7.90;3.83;;;23.00;44.90;;;;;;4910590;29;20040;-84
2023/07/15 16:37:51;;;;;;;10.80;3.05;;;22.90;44.40;;;;;;4896218;29;20057;-83
2023/07/15 16:40:17;;;;;;;6.88;3.00;;;22.80;44.20;;;;;;4916016;29;20071;-82
2023/07/15 16:42:42;;;;;;;5.38;2.28;;;23.00;44.70;;;;;;4909810;29;20403;-82
2023/07/15 16:45:09;;;;;;;6.25;2.83;;;23.20;43.50;;;;;;4910245;29;20025;-83
2023/07/15 16:47:34;;;;;;;7.35;2.92;;;23.00;43.10;;;;;;4906762;29;20492;-81
2023/07/15 16:50:00;;;;;;;7.40;2.72;;;23.00;44.00;;;;;;4910374;29;20047;-90
2023/07/15 16:52:26;;;;;;;7.90;3.00;;;22.90;44.10;;;;;;4895438;29;20032;-78
2023/07/15 16:54:51;;;;;;;7.35;2.72;;;22.80;44.40;;;;;;4905620;29;20033;-80
2023/07/15 16:57:17;;;;;;;8.45;3.38;;;22.60;44.90;;;;;;4902078;29;20025;-79
2023/07/15 16:59:44;;;;;;;7.57;2.95;;;22.60;45.70;;;;;;4902904;29;20115;-82
2023/07/15 17:02:10;;;;;;;9.02;3.40;;;22.60;45.30;;;;;;4902566;29;20507;-81
2023/07/15 17:04:38;;;;;;;8.98;2.90;;;22.50;45.60;;;;;;4916254;29;20028;-83
2023/07/15 17:07:04;;;;;;;8.73;3.28;;;22.40;45.80;;;;;;4915816;29;20016;-78
2023/07/15 17:09:31;;;;;;;6.97;3.03;;;22.50;45.70;;;;;;4898367;29;20035;-78
2023/07/15 17:11:59;;;;;;;8.52;2.58;;;22.50;45.90;;;;;;4900090;29;20021;-77
2023/07/15 17:14:25;;;;;;;9.55;3.08;;;22.30;46.70;;;;;;4913970;29;20024;-78